To NAV CANADA Home Page Login to a new session Search on AWWS site Feedback and Comments Disclaimer Vers la page française équivalente Tips FAQ What's new on the site To the Forecasts and Observations / NOTAM section To "File a Flight Plan" website Publications and other links Update of the User's profile FIC Telephone Numbers My Weather Data Folder Route Weather Data Regional Weather Data Local Weather Data To the Forecasts and Observations / NOTAM section
Request Generated 03/23/2017 at 00:13:04 UTC . Weather information available at that time is displayed.

METAR/TAF

LOURDES-DE-BLANC-SABLON/QC    

METAR CYBX 230000Z 05006KT 15SM FEW250 M12/M16 A2987 RMK CI1 SLP119=
METAR CYBX 222300Z 04005KT 15SM FEW250 M12/M15 A2987 RMK CI2 SLP120=
METAR CYBX 222200Z 35003KT 15SM SCT200 M09/M14 A2987 RMK CI3 SLP118=

TAF CYBX 221938Z 2220/2308 23010KT P6SM SCT200
BECMG 2222/2224 05007KT
FM230200 05012G22KT P6SM BKN030
FM230600 04020G30KT 6SM -SN BKN020 TEMPO 2306/2308 3SM -SN BLSN
PROB30 2306/2308 2SM -SN BKN008
RMK NXT FCST BY 230200Z=
Your time UTC time
Weather data provided by Environment Canada and NAV CANADA